Time;durP1;ratioP1;P1;durP2;ratioP2;P2;SDS_P1;SDS_P2;PMS_P1;PMS_P2;Temp;Humidity;BMP_temperature;BMP_pressure;BME280_temperature;BME280_humidity;BME280_pressure;Samples;Min_cycle;Max_cycle;Signal;HPM_P1;HPM_P2
2022/04/04 00:01:20;;;;;;;5.97;5.17;;;;;;;3.97;48.67;95122.25;4976060;28;20233;-65
2022/04/04 00:03:45;;;;;;;5.40;4.90;;;;;;;3.98;48.35;95115.25;4964048;28;20364;-62
2022/04/04 00:06:11;;;;;;;5.37;4.87;;;;;;;4.02;48.80;95121.09;4970868;28;20251;-65
2022/04/04 00:08:37;;;;;;;5.77;5.07;;;;;;;4.11;48.33;95120.44;4971293;28;20319;-61
2022/04/04 00:11:02;;;;;;;5.73;5.20;;;;;;;4.01;48.78;95124.63;4969523;28;20208;-62
2022/04/04 00:13:28;;;;;;;5.33;4.87;;;;;;;4.12;48.73;95122.94;4965509;28;20281;-61
2022/04/04 00:15:56;;;;;;;5.40;4.90;;;;;;;4.06;48.09;95122.53;4964821;28;20315;-61
2022/04/04 00:18:22;;;;;;;5.33;4.83;;;;;;;4.04;48.25;95120.06;4956874;28;20229;-64
2022/04/04 00:20:49;;;;;;;4.73;4.33;;;;;;;3.94;49.05;95125.06;4970763;28;20235;-62
2022/04/04 00:23:15;;;;;;;5.07;4.67;;;;;;;4.05;48.87;95120.88;4968442;28;20231;-65
2022/04/04 00:25:42;;;;;;;5.07;4.57;;;;;;;4.10;49.25;95129.19;4965848;28;20247;-63
2022/04/04 00:28:08;;;;;;;5.77;5.27;;;;;;;4.15;49.26;95132.31;4991227;28;20227;-61
2022/04/04 00:30:34;;;;;;;5.30;4.80;;;;;;;4.12;49.24;95127.31;4962673;28;20232;-64
2022/04/04 00:32:59;;;;;;;5.57;5.00;;;;;;;4.13;48.84;95121.16;4959799;28;20224;-63
2022/04/04 00:35:25;;;;;;;4.87;4.47;;;;;;;4.10;48.47;95130.00;4966300;28;20216;-62
2022/04/04 00:37:52;;;;;;;5.00;4.60;;;;;;;4.03;48.72;95138.38;4966295;28;20196;-66
2022/04/04 00:40:17;;;;;;;4.63;4.23;;;;;;;3.91;48.87;95134.88;4967741;28;20225;-62
2022/04/04 00:42:43;;;;;;;4.97;4.47;;;;;;;3.98;49.17;95134.34;4958497;28;20266;-64
2022/04/04 00:45:09;;;;;;;5.00;4.60;;;;;;;3.84;49.55;95126.66;4959853;28;20278;-62
2022/04/04 00:47:34;;;;;;;5.00;4.50;;;;;;;3.92;49.79;95129.53;4957296;28;20231;-63
2022/04/04 00:50:00;;;;;;;4.63;4.23;;;;;;;3.85;49.69;95127.47;4965224;28;20216;-63
2022/04/04 00:52:26;;;;;;;4.80;4.40;;;;;;;3.84;50.06;95128.44;4966279;28;20319;-62
2022/04/04 00:54:51;;;;;;;4.80;4.40;;;;;;;3.90;50.17;95128.00;4965212;28;20251;-67
2022/04/04 00:57:17;;;;;;;5.13;4.73;;;;;;;3.82;50.17;95133.72;4961502;28;20235;-67
2022/04/04 00:59:43;;;;;;;5.90;5.07;;;;;;;3.90;49.83;95128.00;4962911;28;20631;-62
2022/04/04 01:02:09;;;;;;;5.20;4.50;;;;;;;3.87;49.69;95134.25;4966460;28;20310;-64
2022/04/04 01:04:35;;;;;;;4.77;4.37;;;;;;;3.98;49.72;95138.69;4967748;28;20208;-64
2022/04/04 01:07:01;;;;;;;4.90;4.50;;;;;;;4.04;49.36;95134.84;4966235;28;20236;-64
2022/04/04 01:09:27;;;;;;;4.90;4.50;;;;;;;3.93;49.76;95141.63;4953168;28;20282;-64
2022/04/04 01:12:07;;;;;;;5.00;4.60;;;;;;;3.88;49.77;95130.72;4981099;28;20320;-65
2022/04/04 01:14:41;;;;;;;5.20;4.70;;;;;;;3.84;50.34;95129.25;4968126;28;20224;-66
2022/04/04 01:17:07;;;;;;;4.50;4.10;;;;;;;3.87;49.79;95133.41;4963135;28;20211;-68
2022/04/04 01:19:33;;;;;;;4.60;4.20;;;;;;;3.85;50.16;95130.09;4959587;28;20282;-68
2022/04/04 01:22:00;;;;;;;5.43;4.13;;;;;;;3.83;50.16;95124.19;4962422;28;20221;-68
2022/04/04 01:24:26;;;;;;;4.20;3.90;;;;;;;3.82;49.70;95125.09;4967099;28;20303;-68
2022/04/04 01:26:53;;;;;;;4.50;4.20;;;;;;;3.83;49.36;95127.59;4965368;28;20256;-64
2022/04/04 01:29:22;;;;;;;5.43;4.40;;;;;;;3.85;49.52;95125.75;4961764;28;20224;-64
2022/04/04 01:31:49;;;;;;;4.57;4.23;;;;;;;3.83;49.38;95116.38;4973686;28;20208;-65
2022/04/04 01:34:18;;;;;;;4.30;4.00;;;;;;;3.79;49.24;95117.50;4965747;28;20394;-64
2022/04/04 01:36:43;;;;;;;4.37;3.97;;;;;;;3.75;48.99;95122.13;4956611;28;20236;-65
2022/04/04 01:39:08;;;;;;;4.60;4.20;;;;;;;3.66;49.30;95118.41;4958921;28;20216;-65
2022/04/04 01:41:34;;;;;;;3.73;3.43;;;;;;;3.69;49.14;95117.34;4963895;28;20231;-65
2022/04/04 01:44:00;;;;;;;4.23;3.90;;;;;;;3.62;49.26;95118.72;4965232;28;20279;-64
2022/04/04 01:46:26;;;;;;;4.63;4.23;;;;;;;3.54;49.52;95127.03;4967287;28;20291;-64
2022/04/04 01:48:53;;;;;;;4.30;4.00;;;;;;;3.62;50.03;95134.31;4962593;28;20248;-64
2022/04/04 01:51:19;;;;;;;4.40;4.00;;;;;;;3.72;49.14;95130.13;4956477;28;20282;-64
2022/04/04 01:53:45;;;;;;;4.70;4.30;;;;;;;3.57;49.53;95129.41;4956961;28;20220;-64
2022/04/04 01:56:11;;;;;;;4.47;4.10;;;;;;;3.58;49.47;95125.88;4964807;28;20210;-64
2022/04/04 01:58:37;;;;;;;5.30;4.53;;;;;;;3.61;49.42;95117.03;4965317;28;20212;-65
2022/04/04 02:01:10;;;;;;;5.53;4.30;;;;;;;3.66;49.61;95135.75;4963635;28;20291;-67
2022/04/04 02:03:38;;;;;;;4.63;4.03;;;;;;;3.75;48.76;95124.72;4960595;28;20224;-67
2022/04/04 02:06:04;;;;;;;4.20;3.87;;;;;;;3.66;49.02;95135.75;4969693;28;20340;-67
2022/04/04 02:08:31;;;;;;;4.57;4.17;;;;;;;3.69;49.42;95135.56;4964137;28;20300;-67
2022/04/04 02:10:57;;;;;;;4.30;4.00;;;;;;;3.75;49.20;95132.53;4958246;28;20196;-64
2022/04/04 02:13:25;;;;;;;4.50;4.17;;;;;;;3.73;49.67;95127.41;4959794;28;20225;-64
2022/04/04 02:15:55;;;;;;;4.73;4.33;;;;;;;3.78;49.06;95124.50;4988403;28;20251;-65
2022/04/04 02:18:20;;;;;;;4.57;4.13;;;;;;;3.63;49.09;95112.56;4971939;28;20244;-64
2022/04/04 02:20:47;;;;;;;4.10;3.70;;;;;;;3.71;49.11;95112.84;4967646;28;20228;-65
2022/04/04 02:23:17;;;;;;;4.40;4.00;;;;;;;3.72;48.65;95110.16;4966849;28;20201;-65
2022/04/04 02:25:44;;;;;;;4.10;3.80;;;;;;;3.69;48.95;95112.97;4961565;28;20303;-65
2022/04/04 02:28:10;;;;;;;4.00;3.70;;;;;;;3.67;49.23;95116.63;4957150;28;20303;-64
2022/04/04 02:30:36;;;;;;;3.83;3.50;;;;;;;3.68;48.73;95118.28;4966299;28;20236;-65
2022/04/04 02:33:01;;;;;;;4.57;4.17;;;;;;;3.80;48.26;95117.44;4964996;28;20224;-65
2022/04/04 02:35:27;;;;;;;4.13;3.83;;;;;;;3.76;48.34;95115.97;4955226;28;20235;-65
2022/04/04 02:37:53;;;;;;;4.77;4.03;;;;;;;3.69;48.34;95109.56;4965669;28;20267;-65
2022/04/04 02:40:19;;;;;;;5.00;4.40;;;;;;;3.72;48.87;95104.13;4958391;28;20221;-64
2022/04/04 02:42:46;;;;;;;4.20;3.87;;;;;;;3.69;48.49;95104.34;4959015;28;20227;-64
2022/04/04 02:45:12;;;;;;;4.83;4.43;;;;;;;3.64;48.58;95103.84;4974409;28;20224;-65
2022/04/04 02:47:38;;;;;;;4.70;4.30;;;;;;;3.65;48.42;95100.28;4957075;28;20262;-65
2022/04/04 02:50:04;;;;;;;4.43;4.13;;;;;;;3.60;48.83;95091.97;4966067;28;20215;-65
2022/04/04 02:52:29;;;;;;;4.67;4.27;;;;;;;3.54;49.08;95093.25;4956988;28;20204;-65
2022/04/04 02:54:55;;;;;;;6.10;4.40;;;;;;;3.57;49.20;95097.41;4961005;28;20264;-64
2022/04/04 02:57:21;;;;;;;4.80;4.40;;;;;;;3.55;49.63;95087.09;4969681;28;20228;-64
2022/04/04 02:59:47;;;;;;;5.17;4.70;;;;;;;3.55;49.22;95097.50;4963452;28;20315;-64
2022/04/04 03:02:12;;;;;;;5.53;5.03;;;;;;;3.69;48.69;95101.75;4980347;28;20383;-64
2022/04/04 03:04:40;;;;;;;5.47;4.97;;;;;;;3.62;49.12;95097.91;4954308;28;20209;-65
2022/04/04 03:07:07;;;;;;;5.77;5.33;;;;;;;3.62;49.08;95093.53;4963239;28;20236;-64
2022/04/04 03:09:33;;;;;;;6.03;5.47;;;;;;;3.61;49.06;95096.22;4964316;28;20230;-64
2022/04/04 03:11:58;;;;;;;5.90;5.40;;;;;;;3.60;49.37;95097.19;4958527;28;20232;-64
2022/04/04 03:14:24;;;;;;;5.80;5.30;;;;;;;3.62;49.35;95098.72;4965953;28;20221;-64
2022/04/04 03:16:50;;;;;;;6.13;5.53;;;;;;;3.66;49.58;95097.59;4968170;28;20248;-65
2022/04/04 03:19:16;;;;;;;6.20;5.60;;;;;;;3.58;49.96;95096.44;4959568;28;20289;-65
2022/04/04 03:21:41;;;;;;;6.37;5.73;;;;;;;3.53;50.26;95102.00;4955512;28;20311;-65
2022/04/04 03:24:07;;;;;;;5.87;5.37;;;;;;;3.46;49.70;95104.16;4963883;28;20236;-65
2022/04/04 03:26:32;;;;;;;7.03;6.33;;;;;;;3.42;50.03;95113.13;4955211;28;20228;-65
2022/04/04 03:28:58;;;;;;;6.47;5.97;;;;;;;3.40;49.95;95109.81;4956223;28;20264;-65
2022/04/04 03:31:23;;;;;;;6.17;5.67;;;;;;;3.42;50.08;95112.28;4959511;28;20231;-63
2022/04/04 03:33:49;;;;;;;6.63;5.90;;;;;;;3.43;49.92;95114.78;4963285;28;20221;-63
2022/04/04 03:36:14;;;;;;;6.47;5.63;;;;;;;3.46;49.81;95122.38;4967747;28;20255;-62
2022/04/04 03:38:40;;;;;;;6.50;6.00;;;;;;;3.45;49.82;95131.13;4968584;28;20235;-63
2022/04/04 03:41:06;;;;;;;7.13;6.43;;;;;;;3.55;49.74;95136.50;4959142;28;20219;-62
2022/04/04 03:43:31;;;;;;;7.00;6.13;;;;;;;3.40;50.17;95135.78;4957872;28;20220;-63
2022/04/04 03:45:57;;;;;;;6.47;5.90;;;;;;;3.33;50.37;95128.53;4962789;28;20228;-63
2022/04/04 03:48:22;;;;;;;7.07;6.37;;;;;;;3.41;50.40;95128.81;4964650;28;20299;-63
2022/04/04 03:50:51;;;;;;;6.57;6.07;;;;;;;3.47;49.96;95126.63;4962365;28;20379;-63
2022/04/04 03:53:17;;;;;;;7.07;6.37;;;;;;;3.45;49.72;95132.88;4960171;28;20207;-63
2022/04/04 03:55:43;;;;;;;7.87;6.27;;;;;;;3.41;50.27;95145.25;4965735;28;20213;-62
2022/04/04 03:58:09;;;;;;;7.50;6.70;;;;;;;3.46;49.54;95152.75;4962100;28;20251;-66
2022/04/04 04:00:38;;;;;;;6.83;6.17;;;;;;;3.43;50.27;95145.97;4962835;28;20232;-65
2022/04/04 04:03:04;;;;;;;7.70;6.70;;;;;;;3.46;49.54;95152.75;4954355;28;20254;-66
2022/04/04 04:05:29;;;;;;;7.70;7.10;;;;;;;3.59;49.48;95160.53;4976803;28;20279;-63
2022/04/04 04:07:55;;;;;;;7.17;6.53;;;;;;;3.49;49.72;95155.13;4965399;28;20307;-66
2022/04/04 04:10:22;;;;;;;8.77;7.30;;;;;;;3.57;49.65;95152.00;4959673;28;20252;-66
2022/04/04 04:12:48;;;;;;;8.57;7.73;;;;;;;3.51;49.44;95168.84;4955783;28;20235;-66
2022/04/04 04:15:18;;;;;;;7.40;6.80;;;;;;;3.51;49.42;95168.84;4959140;28;20232;-68
2022/04/04 04:17:44;;;;;;;7.77;7.07;;;;;;;3.50;49.60;95172.38;4959033;28;20314;-68
2022/04/04 04:20:19;;;;;;;6.90;6.30;;;;;;;3.65;48.66;95176.53;4962349;28;20299;-66
2022/04/04 04:22:49;;;;;;;7.50;6.90;;;;;;;3.65;48.54;95186.09;4961317;28;20291;-66
2022/04/04 04:25:15;;;;;;;7.80;7.20;;;;;;;3.59;48.98;95183.94;4968725;28;20239;-64
2022/04/04 04:27:42;;;;;;;7.57;6.97;;;;;;;3.65;49.29;95180.91;4968624;28;20225;-66
2022/04/04 04:30:08;;;;;;;8.97;8.17;;;;;;;3.71;48.66;95185.66;4962224;28;20224;-66
2022/04/04 04:32:34;;;;;;;7.33;6.73;;;;;;;3.69;48.54;95187.56;4961893;28;20227;-65
2022/04/04 04:34:59;;;;;;;7.30;6.70;;;;;;;3.72;48.65;95195.16;4961201;28;20228;-64
2022/04/04 04:37:25;;;;;;;7.80;7.20;;;;;;;3.71;48.57;95190.88;4955082;28;20224;-65
2022/04/04 04:39:50;;;;;;;7.77;7.07;;;;;;;3.64;48.80;95200.88;4966621;28;20256;-64
2022/04/04 04:42:16;;;;;;;10.60;6.93;;;;;;;3.73;48.43;95199.41;4965916;28;20254;-66
2022/04/04 04:44:43;;;;;;;7.50;6.90;;;;;;;3.75;48.37;95195.75;4960148;28;20232;-66
2022/04/04 04:47:09;;;;;;;9.90;7.70;;;;;;;3.76;48.41;95194.81;4967581;28;20196;-63
2022/04/04 04:49:35;;;;;;;7.67;7.07;;;;;;;3.84;47.96;95194.28;4956845;28;20212;-62
2022/04/04 04:52:00;;;;;;;9.40;7.57;;;;;;;3.86;48.06;95205.44;4964911;28;20227;-62
2022/04/04 04:54:26;;;;;;;7.93;7.23;;;;;;;3.83;48.59;95216.03;4964531;28;20228;-62
2022/04/04 04:56:52;;;;;;;8.00;7.30;;;;;;;3.97;47.91;95210.72;4959974;28;20289;-62
2022/04/04 04:59:18;;;;;;;7.57;6.93;;;;;;;3.91;47.69;95212.91;4976723;28;20231;-62
2022/04/04 05:01:43;;;;;;;7.47;6.87;;;;;;;3.89;47.59;95207.81;4966881;28;20216;-62
2022/04/04 05:04:09;;;;;;;7.23;6.63;;;;;;;3.91;47.51;95212.91;4957461;28;20229;-62
2022/04/04 05:06:34;;;;;;;7.90;7.20;;;;;;;3.93;48.33;95214.47;4961751;28;20228;-62
2022/04/04 05:09:00;;;;;;;8.43;7.53;;;;;;;3.89;48.64;95213.00;4962666;28;20226;-62
2022/04/04 05:11:29;;;;;;;8.27;7.47;;;;;;;4.00;48.14;95214.88;4954320;28;20604;-63
2022/04/04 05:13:54;;;;;;;9.73;7.33;;;;;;;3.94;48.42;95210.94;4957490;28;20200;-63
2022/04/04 05:16:20;;;;;;;7.57;6.87;;;;;;;4.01;48.27;95213.94;4963221;28;20232;-62
2022/04/04 05:18:46;;;;;;;7.63;7.03;;;;;;;3.96;48.31;95211.66;4959236;28;20237;-64
2022/04/04 05:21:11;;;;;;;8.57;7.67;;;;;;;4.02;48.54;95212.16;4961763;28;20228;-63
2022/04/04 05:23:41;;;;;;;8.43;7.63;;;;;;;4.00;48.94;95208.84;4952738;28;20255;-63
2022/04/04 05:26:06;;;;;;;10.60;7.97;;;;;;;4.11;49.18;95221.91;4921450;28;1187988;-64
2022/04/04 05:28:34;;;;;;;8.37;7.63;;;;;;;4.08;48.65;95229.94;4953297;28;20230;-63
2022/04/04 05:30:59;;;;;;;8.53;7.83;;;;;;;4.11;49.16;95224.53;4959638;28;20586;-62
2022/04/04 05:33:26;;;;;;;9.67;8.67;;;;;;;4.23;48.70;95238.47;4965349;28;20256;-62
2022/04/04 05:35:52;;;;;;;9.30;8.40;;;;;;;4.23;48.59;95241.06;4963975;28;20228;-63
2022/04/04 05:38:18;;;;;;;8.97;8.17;;;;;;;4.24;48.24;95242.72;4959410;28;20288;-64
2022/04/04 05:40:44;;;;;;;8.33;7.53;;;;;;;4.28;48.38;95238.97;4960960;28;20287;-63
2022/04/04 05:43:09;;;;;;;9.47;8.33;;;;;;;4.30;48.66;95230.09;4960222;28;20221;-63
2022/04/04 05:45:39;;;;;;;9.13;8.20;;;;;;;4.30;48.51;95240.50;4952005;28;20229;-64
2022/04/04 05:48:05;;;;;;;10.07;8.77;;;;;;;4.44;48.46;95242.16;4959818;28;20239;-63
2022/04/04 05:50:32;;;;;;;9.40;8.20;;;;;;;4.33;48.59;95245.53;4963624;28;20228;-63
2022/04/04 05:52:57;;;;;;;9.17;8.20;;;;;;;4.33;49.26;95247.28;4959211;28;20219;-62
2022/04/04 05:55:23;;;;;;;10.07;7.83;;;;;;;4.37;49.34;95246.94;4961512;28;20225;-63
2022/04/04 05:57:48;;;;;;;8.10;7.37;;;;;;;4.38;49.31;95252.97;4953411;28;20239;-63
2022/04/04 06:00:14;;;;;;;9.50;8.10;;;;;;;4.55;48.60;95257.03;4962819;28;20282;-63
2022/04/04 06:02:44;;;;;;;8.60;7.80;;;;;;;4.58;48.69;95262.84;4953716;28;20223;-63
2022/04/04 06:05:11;;;;;;;8.17;7.37;;;;;;;4.60;48.27;95255.75;4952868;28;20330;-62
2022/04/04 06:07:37;;;;;;;9.83;8.83;;;;;;;4.57;48.30;95263.78;4963538;28;20308;-62
2022/04/04 06:10:04;;;;;;;7.70;6.90;;;;;;;4.52;48.58;95252.84;4967595;28;20224;-61
2022/04/04 06:12:30;;;;;;;8.90;8.10;;;;;;;4.76;47.88;95244.22;4966498;28;20244;-62
2022/04/04 06:14:56;;;;;;;9.03;8.13;;;;;;;4.69;48.17;95256.84;4951578;28;20323;-62
2022/04/04 06:17:21;;;;;;;11.47;9.07;;;;;;;4.90;47.81;95256.25;4953580;28;22623;-62
2022/04/04 06:19:47;;;;;;;8.97;8.07;;;;;;;4.86;47.50;95247.81;4953194;28;20218;-62
2022/04/04 06:22:12;;;;;;;9.00;8.20;;;;;;;4.82;48.02;95243.78;4953568;28;20240;-62
2022/04/04 06:24:38;;;;;;;8.90;8.00;;;;;;;4.99;47.72;95234.72;4966176;28;20256;-62
2022/04/04 06:27:04;;;;;;;12.97;10.67;;;;;;;5.11;47.58;95233.00;4967384;28;20239;-60
2022/04/04 06:29:29;;;;;;;10.63;8.80;;;;;;;5.31;47.12;95242.78;4955402;28;20611;-59
2022/04/04 06:31:56;;;;;;;10.40;9.30;;;;;;;5.42;46.78;95239.38;4961030;28;20226;-60
2022/04/04 06:34:22;;;;;;;9.57;8.77;;;;;;;5.46;46.22;95235.59;4950688;28;20281;-61
2022/04/04 06:36:48;;;;;;;9.50;8.53;;;;;;;5.38;46.14;95248.38;4956278;28;20505;-62
2022/04/04 06:39:15;;;;;;;10.40;8.80;;;;;;;5.40;46.67;95247.31;4953829;28;20267;-61
2022/04/04 06:41:40;;;;;;;9.20;8.30;;;;;;;5.40;46.65;95246.47;4959545;28;20224;-61
2022/04/04 06:44:06;;;;;;;10.43;9.20;;;;;;;5.51;46.04;95249.94;4961227;28;20227;-60
2022/04/04 06:46:35;;;;;;;9.80;8.80;;;;;;;5.51;45.85;95255.16;4963935;28;20212;-60
2022/04/04 06:49:01;;;;;;;9.10;8.30;;;;;;;5.33;46.76;95255.72;4960840;28;20685;-61
2022/04/04 06:51:27;;;;;;;10.33;8.70;;;;;;;5.44;46.88;95260.94;4959863;28;20571;-60
2022/04/04 06:53:53;;;;;;;9.90;9.00;;;;;;;5.60;46.51;95258.03;4960596;28;20273;-61
2022/04/04 06:56:18;;;;;;;9.67;8.60;;;;;;;5.69;46.98;95258.19;4956892;28;20240;-61
2022/04/04 06:58:44;;;;;;;10.00;8.60;;;;;;;5.88;45.45;95257.59;4964395;28;20220;-61
2022/04/04 07:01:09;;;;;;;9.70;8.80;;;;;;;5.84;45.70;95260.56;4959277;28;20224;-62
2022/04/04 07:03:35;;;;;;;8.73;7.93;;;;;;;5.81;46.30;95255.56;4963224;28;20235;-62
2022/04/04 07:06:00;;;;;;;9.03;8.17;;;;;;;5.90;45.48;95262.69;4959602;28;20290;-62
2022/04/04 07:08:28;;;;;;;9.20;8.40;;;;;;;5.77;45.45;95254.97;4953678;28;20252;-62
2022/04/04 07:10:53;;;;;;;10.40;9.43;;;;;;;5.59;46.39;95259.81;4958540;28;20210;-63
2022/04/04 07:13:19;;;;;;;10.50;9.60;;;;;;;5.61;47.00;95260.50;4957827;28;21426;-61
2022/04/04 07:15:44;;;;;;;9.67;8.63;;;;;;;5.92;46.24;95266.03;4950472;28;20256;-61
2022/04/04 07:18:10;;;;;;;11.07;9.43;;;;;;;6.05;45.39;95264.16;4963469;28;20242;-61
2022/04/04 07:20:38;;;;;;;9.90;8.67;;;;;;;5.92;45.42;95266.03;4956884;28;20235;-61
2022/04/04 07:23:05;;;;;;;9.17;8.40;;;;;;;6.07;44.87;95270.09;4961202;28;20275;-62
2022/04/04 07:25:30;;;;;;;9.07;8.13;;;;;;;6.20;44.44;95267.34;4961398;28;20302;-61
2022/04/04 07:27:56;;;;;;;9.83;8.90;;;;;;;6.07;44.93;95270.09;4961347;28;20338;-60
2022/04/04 07:30:23;;;;;;;9.77;8.73;;;;;;;6.23;44.27;95268.91;4952540;28;20317;-62
2022/04/04 07:32:49;;;;;;;11.67;9.73;;;;;;;6.34;44.54;95271.53;4964039;28;20228;-62
2022/04/04 07:35:16;;;;;;;10.03;9.07;;;;;;;6.48;44.69;95275.66;4961913;28;20295;-62
2022/04/04 07:37:43;;;;;;;9.13;8.33;;;;;;;6.59;43.74;95275.66;4961774;28;20203;-62
2022/04/04 07:40:14;;;;;;;8.63;7.90;;;;;;;6.57;42.53;95277.53;4954799;28;20282;-61
2022/04/04 07:42:41;;;;;;;9.07;8.03;;;;;;;6.56;42.54;95268.88;4956904;28;20222;-61
2022/04/04 07:45:09;;;;;;;8.77;7.97;;;;;;;6.55;42.54;95271.63;4957240;28;20240;-62
2022/04/04 07:47:35;;;;;;;9.10;8.30;;;;;;;6.58;42.87;95274.81;4939442;28;20231;-62
2022/04/04 07:50:01;;;;;;;9.17;7.60;;;;;;;6.82;41.80;95269.44;4954014;28;20223;-61
2022/04/04 07:52:27;;;;;;;9.60;8.70;;;;;;;7.01;41.90;95276.63;4962294;28;20237;-61
2022/04/04 07:54:53;;;;;;;11.37;10.13;;;;;;;6.95;42.24;95279.75;4964355;28;20378;-61
2022/04/04 07:57:20;;;;;;;8.60;7.90;;;;;;;6.80;41.68;95291.41;4955800;28;20263;-61
2022/04/04 07:59:46;;;;;;;9.80;7.93;;;;;;;7.02;42.05;95288.72;4956077;28;20236;-62
2022/04/04 08:02:11;;;;;;;8.93;8.13;;;;;;;7.09;40.93;95285.66;4958194;28;20301;-63
2022/04/04 08:04:38;;;;;;;8.87;8.07;;;;;;;7.11;40.71;95283.72;4955218;28;20217;-61
2022/04/04 08:07:04;;;;;;;8.23;7.43;;;;;;;7.06;41.25;95287.56;4960317;28;20258;-63
2022/04/04 08:09:29;;;;;;;8.93;8.03;;;;;;;7.23;41.02;95285.34;4955135;28;20339;-62
2022/04/04 08:11:55;;;;;;;8.83;8.03;;;;;;;7.29;40.13;95277.81;4957972;28;20236;-62
2022/04/04 08:14:21;;;;;;;8.63;7.83;;;;;;;7.46;40.10;95273.84;4961998;28;20196;-63
2022/04/04 08:16:47;;;;;;;9.37;8.47;;;;;;;7.64;40.39;95275.88;4963683;28;20204;-61
2022/04/04 08:19:13;;;;;;;8.83;8.03;;;;;;;7.78;39.87;95277.34;4959148;28;20235;-62
2022/04/04 08:21:44;;;;;;;8.93;8.10;;;;;;;7.79;39.84;95274.59;4962256;28;20228;-66
2022/04/04 08:24:09;;;;;;;8.57;7.80;;;;;;;7.71;40.35;95271.81;4962428;28;20264;-67
2022/04/04 08:26:35;;;;;;;9.07;8.17;;;;;;;7.86;39.29;95267.91;4960095;28;20286;-66
2022/04/04 08:29:01;;;;;;;8.93;8.13;;;;;;;7.93;38.98;95266.41;4960694;28;20211;-61
2022/04/04 08:31:27;;;;;;;8.93;8.10;;;;;;;7.72;39.15;95261.22;4956855;28;20223;-65
2022/04/04 08:33:52;;;;;;;9.23;8.33;;;;;;;7.48;40.10;95256.22;4963364;28;20311;-63
2022/04/04 08:36:18;;;;;;;10.47;9.47;;;;;;;7.79;39.47;95252.84;4956152;28;20240;-66
2022/04/04 08:38:43;;;;;;;8.47;7.67;;;;;;;7.97;39.46;95250.47;4959100;28;20577;-63
2022/04/04 08:41:10;;;;;;;9.03;7.93;;;;;;;8.11;39.04;95247.50;4958535;28;20215;-60
2022/04/04 08:43:39;;;;;;;9.07;8.20;;;;;;;8.00;38.24;95245.78;4959789;28;20250;-64
2022/04/04 08:46:06;;;;;;;7.53;6.93;;;;;;;7.88;38.89;95239.78;4966537;28;20538;-65
2022/04/04 08:48:40;;;;;;;8.83;8.03;;;;;;;8.02;38.68;95236.03;4963649;28;20239;-67
2022/04/04 08:51:09;;;;;;;8.47;7.67;;;;;;;8.27;38.02;95233.91;4956978;28;20286;-61
2022/04/04 08:53:36;;;;;;;11.63;7.97;;;;;;;8.25;38.04;95226.19;4955706;28;20319;-65
2022/04/04 08:56:04;;;;;;;9.87;8.20;;;;;;;8.34;38.26;95216.69;4957114;28;20230;-64
2022/04/04 08:58:30;;;;;;;8.73;7.93;;;;;;;8.65;38.10;95214.06;4963836;28;20241;-65
2022/04/04 09:00:56;;;;;;;8.47;7.57;;;;;;;8.78;37.25;95215.44;4962347;28;20237;-64
2022/04/04 09:03:23;;;;;;;8.73;7.83;;;;;;;8.80;37.57;95213.53;4967765;28;20235;-61
2022/04/04 09:05:53;;;;;;;14.20;9.53;;;;;;;9.03;37.33;95208.88;4963519;28;20241;-64
2022/04/04 09:08:20;;;;;;;8.73;7.93;;;;;;;8.82;37.31;95210.75;4970822;28;20201;-65
2022/04/04 09:10:46;;;;;;;8.30;7.60;;;;;;;8.71;37.83;95213.50;4957798;28;20212;-64
2022/04/04 09:13:17;;;;;;;9.37;8.47;;;;;;;8.90;37.15;95207.44;4960616;28;20235;-65
2022/04/04 09:15:59;;;;;;;10.53;9.30;;;;;;;9.07;36.89;95193.66;4960081;28;20258;-64
2022/04/04 09:18:37;;;;;;;8.93;8.03;;;;;;;9.31;36.66;95201.13;4959409;28;20224;-65
2022/04/04 09:21:04;;;;;;;12.03;9.33;;;;;;;9.39;37.14;95195.19;4957743;28;20243;-65
2022/04/04 09:23:54;;;;;;;11.70;8.97;;;;;;;9.77;36.32;95196.06;4961002;28;20239;-61
2022/04/04 09:26:32;;;;;;;9.40;7.93;;;;;;;9.92;36.04;95186.75;4960633;28;20271;-65
2022/04/04 09:29:00;;;;;;;11.53;8.37;;;;;;;10.26;35.62;95180.94;4943706;28;20216;-64
2022/04/04 09:31:26;;;;;;;8.53;7.53;;;;;;;9.95;35.19;95181.22;4944366;28;20302;-62
2022/04/04 09:33:51;;;;;;;8.70;7.77;;;;;;;10.03;36.06;95173.44;4958818;28;20228;-65
2022/04/04 09:36:17;;;;;;;9.07;7.13;;;;;;;10.01;36.09;95178.00;4947628;28;20235;-64
2022/04/04 09:38:54;;;;;;;8.23;7.50;;;;;;;10.16;35.57;95173.94;4945273;28;20232;-65
2022/04/04 09:41:21;;;;;;;8.20;7.40;;;;;;;10.10;35.34;95166.66;4944388;28;20215;-65
2022/04/04 09:43:58;;;;;;;9.10;8.20;;;;;;;10.00;35.31;95175.53;4959475;28;20239;-66
2022/04/04 09:46:24;;;;;;;8.67;7.83;;;;;;;10.08;35.73;95157.25;4943490;28;20239;-65
2022/04/04 09:49:11;;;;;;;8.60;7.70;;;;;;;10.37;34.76;95163.22;4959279;28;20254;-65
2022/04/04 09:51:42;;;;;;;8.43;7.60;;;;;;;10.48;34.93;95166.63;4961019;28;20279;-61
2022/04/04 09:54:15;;;;;;;9.00;8.10;;;;;;;10.51;34.71;95158.44;4945026;28;20239;-61
2022/04/04 09:56:41;;;;;;;8.23;7.43;;;;;;;10.64;35.00;95150.16;4944547;28;20402;-65
2022/04/04 09:59:11;;;;;;;9.20;8.27;;;;;;;10.91;35.45;95152.75;4956592;28;20703;-66
2022/04/04 10:01:38;;;;;;;9.43;8.40;;;;;;;10.97;33.79;95152.16;4941913;28;20204;-64
2022/04/04 10:04:06;;;;;;;9.07;8.27;;;;;;;10.72;33.70;95137.94;4955794;28;20224;-64
2022/04/04 10:06:33;;;;;;;9.27;8.30;;;;;;;10.95;34.16;95114.63;4956098;28;20232;-65
2022/04/04 10:09:00;;;;;;;9.47;8.23;;;;;;;10.63;33.93;95130.13;4961589;28;20228;-62
2022/04/04 10:11:27;;;;;;;9.27;8.47;;;;;;;10.82;33.63;95119.44;4948397;28;20233;-66
2022/04/04 10:13:54;;;;;;;9.87;7.33;;;;;;;11.03;34.00;95122.59;4963235;28;20260;-66
2022/04/04 10:16:24;;;;;;;8.77;7.67;;;;;;;11.16;33.53;95118.75;4969408;28;20420;-62
2022/04/04 10:18:55;;;;;;;9.07;8.03;;;;;;;11.13;33.51;95113.81;4955803;28;20288;-66
2022/04/04 10:21:21;;;;;;;8.40;7.47;;;;;;;11.04;33.87;95105.03;4956221;28;20251;-64
2022/04/04 10:23:50;;;;;;;8.43;7.73;;;;;;;11.15;33.55;95107.41;4960769;28;20293;-66
2022/04/04 10:26:20;;;;;;;8.60;7.80;;;;;;;11.34;33.34;95093.22;4955447;28;20234;-67
2022/04/04 10:28:47;;;;;;;10.33;8.53;;;;;;;11.40;33.42;95095.22;4986513;28;20208;-67
2022/04/04 10:31:16;;;;;;;9.93;8.97;;;;;;;11.72;33.33;95091.16;4954484;28;20220;-67
2022/04/04 10:33:43;;;;;;;8.30;7.50;;;;;;;11.73;33.14;95089.31;4952680;28;20247;-67
2022/04/04 10:36:10;;;;;;;9.97;7.83;;;;;;;11.81;32.89;95087.56;4949202;28;20240;-63
2022/04/04 10:38:38;;;;;;;11.73;8.33;;;;;;;11.75;33.00;95085.56;4938874;28;20239;-66
2022/04/04 10:41:07;;;;;;;8.10;7.23;;;;;;;11.89;32.91;95090.28;4955599;28;20540;-64
2022/04/04 10:43:35;;;;;;;8.67;7.87;;;;;;;11.69;33.24;95081.75;4956866;28;20279;-61
2022/04/04 10:46:04;;;;;;;8.83;7.00;;;;;;;11.65;33.20;95084.84;4954083;28;20319;-59
2022/04/04 10:48:35;;;;;;;9.23;7.23;;;;;;;11.41;33.30;95078.47;4958943;28;20280;-66
2022/04/04 10:51:39;;;;;;;8.40;7.53;;;;;;;11.35;33.46;95081.72;4973372;28;20237;-67
2022/04/04 10:54:10;;;;;;;8.43;7.73;;;;;;;11.51;33.01;95082.78;4962718;28;20333;-66
2022/04/04 10:56:47;;;;;;;8.00;7.10;;;;;;;10.99;33.52;95079.16;4952657;28;20304;-65
2022/04/04 10:59:15;;;;;;;7.87;7.17;;;;;;;11.16;33.11;95077.47;4953472;28;20216;-64
2022/04/04 11:01:46;;;;;;;8.13;7.30;;;;;;;11.26;32.68;95070.31;4971842;28;20240;-65
2022/04/04 11:04:31;;;;;;;8.40;7.43;;;;;;;11.47;33.15;95069.13;4963028;28;20315;-61
2022/04/04 11:10:07;;;;;;;9.73;7.97;;;;;;;12.22;32.46;95065.84;4962083;28;20812;-65
2022/04/04 11:13:04;;;;;;;8.83;6.90;;;;;;;12.23;31.57;95065.69;4958552;28;20247;-65
2022/04/04 11:15:44;;;;;;;8.83;6.90;;;;;;;12.01;31.93;95066.28;4955925;28;20307;-65
2022/04/04 11:18:12;;;;;;;7.80;7.10;;;;;;;12.49;31.99;95064.75;4942025;28;20565;-65
2022/04/04 11:20:51;;;;;;;7.60;6.90;;;;;;;12.80;31.16;95065.78;4965836;28;20228;-64
2022/04/04 11:23:17;;;;;;;8.57;7.40;;;;;;;12.99;30.54;95066.44;4960498;28;20232;-68
2022/04/04 11:26:04;;;;;;;7.60;6.80;;;;;;;12.85;30.51;95064.47;4956202;28;20458;-63
2022/04/04 11:28:32;;;;;;;11.03;7.27;;;;;;;12.45;31.87;95044.97;4984237;28;20235;-67
2022/04/04 11:31:12;;;;;;;9.03;6.57;;;;;;;12.75;31.18;95040.88;4955714;28;20224;-68
2022/04/04 11:33:48;;;;;;;8.48;7.57;;;;;;;12.88;31.35;95046.47;4953237;28;20224;-62
2022/04/04 11:36:25;;;;;;;7.97;7.27;;;;;;;12.42;31.56;95040.84;4955489;28;20227;-67
2022/04/04 11:38:51;;;;;;;8.13;7.00;;;;;;;12.63;31.24;95037.72;4960367;28;20279;-62
2022/04/04 11:41:19;;;;;;;10.13;7.40;;;;;;;13.03;31.00;95028.16;4969953;28;20212;-67
2022/04/04 11:43:52;;;;;;;8.00;6.87;;;;;;;13.10;31.09;95023.06;4954781;28;20216;-61